createdAt,value
2022-12-23T00:00:49.890Z,52.13
2022-12-23T00:01:52.405Z,52.13
2022-12-23T00:02:54.608Z,52.14
2022-12-23T00:03:56.643Z,52.12
2022-12-23T00:04:58.440Z,52.14
2022-12-23T00:06:00.240Z,52.13
2022-12-23T00:07:02.063Z,52.15
2022-12-23T00:08:03.845Z,52.13
2022-12-23T00:09:05.669Z,52.09
2022-12-23T00:10:08.264Z,52.08
2022-12-23T00:11:10.063Z,52.09
2022-12-23T00:12:11.903Z,52.11
2022-12-23T00:13:13.714Z,52.10
2022-12-23T00:14:20.998Z,52.12
2022-12-23T00:15:19.107Z,52.13
2022-12-23T00:16:21.242Z,52.11
2022-12-23T00:17:23.382Z,52.11
2022-12-23T00:18:25.312Z,52.10
2022-12-23T00:19:27.123Z,52.10
2022-12-23T00:20:29.018Z,52.14
2022-12-23T00:21:30.826Z,52.15
2022-12-23T00:22:32.661Z,52.15
2022-12-23T00:23:34.448Z,52.16
2022-12-23T00:24:36.250Z,52.17
2022-12-23T00:25:38.037Z,52.16
2022-12-23T00:26:39.968Z,52.16
2022-12-23T00:27:41.827Z,52.20
2022-12-23T00:28:43.609Z,52.18
2022-12-23T00:29:45.400Z,52.19
2022-12-23T00:30:47.307Z,52.22
2022-12-23T00:31:49.254Z,52.19
2022-12-23T00:32:51.047Z,52.18
2022-12-23T00:33:52.859Z,52.16
2022-12-23T00:34:54.630Z,52.19
2022-12-23T00:35:56.455Z,52.22
2022-12-23T00:36:58.242Z,52.26
2022-12-23T00:38:00.099Z,52.26
2022-12-23T00:39:01.880Z,52.26
2022-12-23T00:40:06.764Z,52.28
2022-12-23T00:41:07.321Z,52.28
2022-12-23T00:42:09.103Z,52.27
2022-12-23T00:43:10.951Z,52.26
2022-12-23T00:44:12.773Z,52.27
2022-12-23T00:45:14.554Z,52.31
2022-12-23T00:46:16.814Z,52.32
2022-12-23T00:47:18.583Z,52.31
2022-12-23T00:48:20.427Z,52.33
2022-12-23T00:49:22.240Z,52.36
2022-12-23T00:50:24.036Z,52.41
2022-12-23T00:51:25.838Z,52.42
2022-12-23T00:52:27.625Z,52.42
2022-12-23T00:53:29.477Z,52.43
2022-12-23T00:54:31.266Z,52.46
2022-12-23T00:55:33.074Z,52.48
2022-12-23T00:56:34.968Z,52.52
2022-12-23T00:57:36.764Z,52.52
2022-12-23T00:58:38.617Z,52.52
2022-12-23T00:59:40.435Z,52.53
2022-12-23T01:00:42.419Z,52.55
2022-12-23T01:01:44.334Z,52.54
2022-12-23T01:02:46.334Z,52.57
2022-12-23T01:03:48.173Z,52.57
2022-12-23T01:04:49.975Z,52.60
2022-12-23T01:05:51.776Z,52.59
2022-12-23T01:06:53.679Z,52.61
2022-12-23T01:07:55.477Z,52.61
2022-12-23T01:08:57.325Z,52.62
2022-12-23T01:09:59.135Z,52.63
2022-12-23T01:11:01.022Z,52.67
2022-12-23T01:12:02.817Z,52.71
2022-12-23T01:13:04.616Z,52.70
2022-12-23T01:14:06.458Z,52.75
2022-12-23T01:15:08.258Z,52.77
2022-12-23T01:16:16.928Z,52.80
2022-12-23T01:17:14.424Z,52.84
2022-12-23T01:18:16.255Z,52.90
2022-12-23T01:19:18.074Z,52.95
2022-12-23T01:20:19.882Z,53.00
2022-12-23T01:21:21.676Z,52.99
2022-12-23T01:22:23.476Z,53.03
2022-12-23T01:23:25.277Z,53.12
2022-12-23T01:24:27.101Z,53.21
2022-12-23T01:25:29.006Z,53.29
2022-12-23T01:26:30.796Z,53.36
2022-12-23T01:27:32.606Z,53.41
2022-12-23T01:28:34.394Z,53.46
2022-12-23T01:29:36.229Z,53.53
2022-12-23T01:30:38.239Z,53.56
2022-12-23T01:31:40.070Z,53.60
2022-12-23T01:32:41.839Z,53.67
2022-12-23T01:33:43.644Z,53.78
2022-12-23T01:34:45.471Z,53.87
2022-12-23T01:35:47.284Z,53.94
2022-12-23T01:36:49.081Z,54.01
2022-12-23T01:37:51.008Z,54.08
2022-12-23T01:38:52.808Z,54.15
2022-12-23T01:39:54.654Z,54.20
2022-12-23T01:40:56.522Z,54.24
2022-12-23T01:41:58.303Z,54.25
2022-12-23T01:43:00.115Z,54.26
2022-12-23T01:44:01.809Z,54.32
2022-12-23T01:45:03.604Z,54.36
2022-12-23T01:46:05.771Z,54.38
2022-12-23T01:47:07.618Z,54.37
2022-12-23T01:48:09.412Z,54.43
2022-12-23T01:49:11.212Z,54.44
2022-12-23T01:50:13.426Z,54.50
2022-12-23T01:51:15.209Z,54.51
2022-12-23T01:52:17.009Z,54.53
2022-12-23T01:53:18.843Z,54.57
2022-12-23T01:54:20.640Z,54.59
2022-12-23T01:55:22.518Z,54.60
2022-12-23T01:56:24.428Z,54.61
2022-12-23T01:57:26.241Z,54.61
2022-12-23T01:58:28.096Z,54.61
2022-12-23T01:59:29.901Z,54.61
2022-12-23T02:00:32.026Z,54.59
2022-12-23T02:01:34.002Z,54.60
2022-12-23T02:02:35.973Z,54.61
2022-12-23T02:03:37.861Z,54.62
2022-12-23T02:04:39.732Z,54.62
2022-12-23T02:05:41.579Z,54.62
2022-12-23T02:06:43.385Z,54.66
2022-12-23T02:07:45.204Z,54.69
2022-12-23T02:08:47.049Z,54.71
2022-12-23T02:09:48.880Z,54.73
2022-12-23T02:10:50.812Z,54.73
2022-12-23T02:11:52.629Z,54.71
2022-12-23T02:12:54.454Z,54.74
2022-12-23T02:13:56.288Z,54.76
2022-12-23T02:14:58.110Z,54.75
2022-12-23T02:15:59.912Z,54.76
2022-12-23T02:17:01.993Z,54.78
2022-12-23T02:18:03.768Z,54.78
2022-12-23T02:19:05.611Z,54.78
2022-12-23T02:20:08.116Z,54.77
2022-12-23T02:21:09.929Z,54.78
2022-12-23T02:22:11.733Z,54.81
2022-12-23T02:23:13.630Z,54.82
2022-12-23T02:24:15.484Z,54.85
2022-12-23T02:25:17.283Z,54.90
2022-12-23T02:26:19.170Z,54.87
2022-12-23T02:27:20.986Z,54.90
2022-12-23T02:28:22.784Z,54.87
2022-12-23T02:29:24.604Z,54.86
2022-12-23T02:30:26.403Z,54.81
2022-12-23T02:31:28.261Z,54.80
2022-12-23T02:32:30.166Z,54.78
2022-12-23T02:33:31.962Z,54.76
2022-12-23T02:34:33.822Z,54.71
2022-12-23T02:35:35.615Z,54.73
2022-12-23T02:36:37.833Z,54.74
2022-12-23T02:37:39.631Z,54.74
2022-12-23T02:38:41.437Z,54.74
2022-12-23T02:39:43.296Z,54.76
2022-12-23T02:40:45.294Z,54.78
2022-12-23T02:41:47.092Z,54.79
2022-12-23T02:42:48.899Z,54.82
2022-12-23T02:43:50.713Z,54.85
2022-12-23T02:44:52.549Z,54.83
2022-12-23T02:45:54.406Z,54.84
2022-12-23T02:46:56.293Z,54.85
2022-12-23T02:47:58.143Z,54.85
2022-12-23T02:48:59.940Z,54.88
2022-12-23T02:50:01.785Z,54.87
2022-12-23T02:51:03.576Z,54.91
2022-12-23T02:52:05.394Z,54.89
2022-12-23T02:53:07.197Z,54.93
2022-12-23T02:54:08.989Z,54.95
2022-12-23T02:55:10.830Z,54.96
2022-12-23T02:56:13.149Z,54.99
2022-12-23T02:57:14.936Z,55.02
2022-12-23T02:58:16.750Z,55.02
2022-12-23T02:59:18.542Z,55.04
2022-12-23T03:00:20.613Z,55.04
2022-12-23T03:01:22.430Z,55.07
2022-12-23T03:02:24.519Z,55.08
2022-12-23T03:03:26.476Z,55.10
2022-12-23T03:04:28.265Z,55.09
2022-12-23T03:05:30.102Z,55.11
2022-12-23T03:06:32.063Z,55.08
2022-12-23T03:07:33.879Z,55.07
2022-12-23T03:08:35.665Z,55.05
2022-12-23T03:09:37.497Z,55.05
2022-12-23T03:10:39.423Z,55.08
2022-12-23T03:11:41.226Z,55.08
2022-12-23T03:12:43.058Z,55.10
2022-12-23T03:13:44.910Z,55.11
2022-12-23T03:14:46.727Z,55.10
2022-12-23T03:15:48.602Z,55.10
2022-12-23T03:16:50.553Z,55.13
2022-12-23T03:17:52.380Z,55.12
2022-12-23T03:18:54.250Z,55.11
2022-12-23T03:19:56.049Z,55.11
2022-12-23T03:20:57.977Z,55.10
2022-12-23T03:21:59.777Z,55.07
2022-12-23T03:23:01.624Z,55.08
2022-12-23T03:24:03.498Z,55.04
2022-12-23T03:25:05.336Z,55.05
2022-12-23T03:26:08.566Z,55.05
2022-12-23T03:27:10.399Z,55.03
2022-12-23T03:28:12.243Z,55.01
2022-12-23T03:29:14.058Z,55.01
2022-12-23T03:30:16.474Z,55.00
2022-12-23T03:31:18.345Z,55.00
2022-12-23T03:32:20.216Z,54.97
2022-12-23T03:33:22.027Z,54.93
2022-12-23T03:34:23.871Z,54.90
2022-12-23T03:35:25.690Z,54.91
2022-12-23T03:36:27.531Z,54.91
2022-12-23T03:37:29.334Z,54.93
2022-12-23T03:38:31.130Z,54.87
2022-12-23T03:39:32.971Z,54.85
2022-12-23T03:40:34.796Z,54.85
2022-12-23T03:41:36.614Z,54.83
2022-12-23T03:42:38.439Z,54.81
2022-12-23T03:43:43.484Z,54.80
2022-12-23T03:45:03.536Z,54.77
2022-12-23T03:45:47.510Z,54.80
2022-12-23T03:46:49.372Z,54.79
2022-12-23T03:47:51.319Z,54.79
2022-12-23T03:48:53.129Z,54.80
2022-12-23T03:49:54.931Z,54.82
2022-12-23T03:50:57.048Z,54.81
2022-12-23T03:51:58.886Z,54.79
2022-12-23T03:53:00.737Z,54.79
2022-12-23T03:54:02.550Z,54.82
2022-12-23T03:55:04.406Z,54.79
2022-12-23T03:56:07.365Z,54.79
2022-12-23T03:57:09.181Z,54.77
2022-12-23T03:58:11.059Z,54.79
2022-12-23T03:59:12.878Z,54.75
2022-12-23T04:00:14.820Z,54.76
2022-12-23T04:01:17.987Z,54.71
2022-12-23T04:02:20.342Z,54.72
2022-12-23T04:03:22.461Z,54.71
2022-12-23T04:04:24.315Z,54.71
2022-12-23T04:05:26.048Z,54.68
2022-12-23T04:06:27.891Z,54.68
2022-12-23T04:07:29.681Z,54.67
2022-12-23T04:08:31.464Z,54.67
2022-12-23T04:09:33.235Z,54.66
2022-12-23T04:10:35.342Z,54.65
2022-12-23T04:11:37.228Z,54.62
2022-12-23T04:12:39.005Z,54.59
2022-12-23T04:13:40.798Z,54.61
2022-12-23T04:14:42.573Z,54.59
2022-12-23T04:15:44.564Z,54.59
2022-12-23T04:16:46.649Z,54.56
2022-12-23T04:17:48.423Z,54.55
2022-12-23T04:18:50.280Z,54.54
2022-12-23T04:19:52.082Z,54.52
2022-12-23T04:20:53.859Z,54.51
2022-12-23T04:21:55.660Z,54.47
2022-12-23T04:22:57.504Z,54.45
2022-12-23T04:23:59.281Z,54.44
2022-12-23T04:25:01.078Z,54.43
2022-12-23T04:26:02.868Z,54.43
2022-12-23T04:27:04.661Z,54.43
2022-12-23T04:28:06.486Z,54.42
2022-12-23T04:29:08.278Z,54.41
2022-12-23T04:30:10.200Z,54.42
2022-12-23T04:31:12.045Z,54.42
2022-12-23T04:32:13.860Z,54.45
2022-12-23T04:33:15.707Z,54.43
2022-12-23T04:34:17.499Z,54.43
2022-12-23T04:35:19.274Z,54.45
2022-12-23T04:36:21.276Z,54.47
2022-12-23T04:37:23.071Z,54.46
2022-12-23T04:38:24.905Z,54.42
2022-12-23T04:39:26.718Z,54.41
2022-12-23T04:40:28.587Z,54.41
2022-12-23T04:41:30.378Z,54.41
2022-12-23T04:42:32.208Z,54.37
2022-12-23T04:43:34.005Z,54.40
2022-12-23T04:44:35.785Z,54.40
2022-12-23T04:45:37.571Z,54.40
2022-12-23T04:46:39.550Z,54.39
2022-12-23T04:47:41.375Z,54.40
2022-12-23T04:48:43.209Z,54.40
2022-12-23T04:49:45.035Z,54.42
2022-12-23T04:50:47.212Z,54.42
2022-12-23T04:51:49.004Z,54.39
2022-12-23T04:52:50.786Z,54.41
2022-12-23T04:53:52.640Z,54.44
2022-12-23T04:54:54.475Z,54.48
2022-12-23T04:55:56.259Z,54.51
2022-12-23T04:56:58.168Z,54.51
2022-12-23T04:57:59.985Z,54.53
2022-12-23T04:59:01.777Z,54.56
2022-12-23T05:00:03.605Z,54.58
2022-12-23T05:01:05.441Z,54.59
2022-12-23T05:02:07.406Z,54.62
2022-12-23T05:03:09.454Z,54.65
2022-12-23T05:04:11.341Z,54.68
2022-12-23T05:05:13.143Z,54.69
2022-12-23T05:06:14.970Z,54.71
2022-12-23T05:07:16.751Z,54.74
2022-12-23T05:08:18.554Z,54.78
2022-12-23T05:09:20.384Z,54.80
2022-12-23T05:10:22.285Z,54.80
2022-12-23T05:11:24.076Z,54.80
2022-12-23T05:12:25.867Z,54.81
2022-12-23T05:13:27.643Z,54.80
2022-12-23T05:14:29.456Z,54.79
2022-12-23T05:15:31.252Z,54.79
2022-12-23T05:16:33.105Z,54.82
2022-12-23T05:17:34.966Z,54.81
2022-12-23T05:18:36.774Z,54.82
2022-12-23T05:19:38.609Z,54.84
2022-12-23T05:20:40.507Z,54.82
2022-12-23T05:21:42.290Z,54.82
2022-12-23T05:22:44.106Z,54.82
2022-12-23T05:23:45.874Z,54.81
2022-12-23T05:24:47.737Z,54.81
2022-12-23T05:25:49.587Z,54.78
2022-12-23T05:26:59.225Z,54.77
2022-12-23T05:27:54.972Z,54.71
2022-12-23T05:28:56.754Z,54.68
2022-12-23T05:29:58.581Z,54.61
2022-12-23T05:31:00.385Z,54.56
2022-12-23T05:32:02.272Z,54.53
2022-12-23T05:33:04.145Z,54.50
2022-12-23T05:34:06.862Z,54.49
2022-12-23T05:35:08.807Z,54.47
2022-12-23T05:36:11.235Z,54.45
2022-12-23T05:37:13.069Z,54.47
2022-12-23T05:38:14.845Z,54.43
2022-12-23T05:39:16.652Z,54.44
2022-12-23T05:40:23.191Z,54.46
2022-12-23T05:41:22.619Z,54.47
2022-12-23T05:42:24.434Z,54.46
2022-12-23T05:43:26.203Z,54.48
2022-12-23T05:44:28.013Z,54.44
2022-12-23T05:45:29.898Z,54.38
2022-12-23T05:46:31.825Z,54.35
2022-12-23T05:47:33.776Z,54.33
2022-12-23T05:48:35.571Z,54.28
2022-12-23T05:49:37.348Z,54.23
2022-12-23T05:50:39.475Z,54.21
2022-12-23T05:51:41.314Z,54.16
2022-12-23T05:52:43.129Z,54.12
2022-12-23T05:53:44.931Z,54.10
2022-12-23T05:54:46.747Z,54.08
2022-12-23T05:55:48.563Z,54.08
2022-12-23T05:56:50.341Z,54.08
2022-12-23T05:57:52.119Z,54.08
2022-12-23T05:58:53.940Z,54.06
2022-12-23T05:59:55.726Z,54.02
2022-12-23T06:00:57.674Z,54.03
2022-12-23T06:01:59.743Z,53.98
2022-12-23T06:03:01.709Z,53.99
2022-12-23T06:04:03.847Z,53.97
2022-12-23T06:05:05.753Z,53.98
2022-12-23T06:06:08.803Z,53.97
2022-12-23T06:07:10.609Z,53.97
2022-12-23T06:08:12.437Z,53.97
2022-12-23T06:09:14.226Z,53.93
2022-12-23T06:10:16.025Z,53.90
2022-12-23T06:11:17.818Z,53.85
2022-12-23T06:12:19.695Z,53.78
2022-12-23T06:13:21.484Z,53.74
2022-12-23T06:14:28.586Z,53.70
2022-12-23T06:15:26.910Z,53.68
2022-12-23T06:16:28.991Z,53.65
2022-12-23T06:17:30.825Z,53.60
2022-12-23T06:18:32.639Z,53.60
2022-12-23T06:19:34.468Z,53.56
2022-12-23T06:20:36.404Z,53.52
2022-12-23T06:21:38.223Z,53.48
2022-12-23T06:22:40.047Z,53.42
2022-12-23T06:23:41.871Z,53.37
2022-12-23T06:24:43.702Z,53.29
2022-12-23T06:25:45.563Z,53.24
2022-12-23T06:26:50.826Z,53.24
2022-12-23T06:27:51.152Z,53.18
2022-12-23T06:28:52.974Z,53.12
2022-12-23T06:29:54.848Z,53.11
2022-12-23T06:30:56.686Z,53.09
2022-12-23T06:31:58.557Z,53.08
2022-12-23T06:33:00.477Z,53.09
2022-12-23T06:34:02.304Z,53.06
2022-12-23T06:35:04.104Z,53.05
2022-12-23T06:36:06.113Z,53.05
2022-12-23T06:37:07.937Z,53.05
2022-12-23T06:38:12.204Z,53.02
2022-12-23T06:39:13.389Z,52.99
2022-12-23T06:40:15.470Z,52.94
2022-12-23T06:41:17.358Z,52.93
2022-12-23T06:42:19.164Z,52.88
2022-12-23T06:43:20.964Z,52.87
2022-12-23T06:44:22.782Z,52.83
2022-12-23T06:45:24.595Z,52.82
2022-12-23T06:46:26.821Z,52.80
2022-12-23T06:47:28.730Z,52.77
2022-12-23T06:48:30.594Z,52.74
2022-12-23T06:49:32.399Z,52.69
2022-12-23T06:50:34.207Z,52.69
2022-12-23T06:51:36.072Z,52.63
2022-12-23T06:52:37.910Z,52.62
2022-12-23T06:53:39.752Z,52.56
2022-12-23T06:54:41.572Z,52.54
2022-12-23T06:55:43.371Z,52.50
2022-12-23T06:56:45.294Z,52.44
2022-12-23T06:57:47.167Z,52.39
2022-12-23T06:58:48.990Z,52.36
2022-12-23T06:59:50.783Z,52.34
2022-12-23T07:00:53.177Z,52.36
2022-12-23T07:01:55.236Z,52.33
2022-12-23T07:02:57.293Z,52.32
2022-12-23T07:03:59.187Z,52.31
2022-12-23T07:05:01.009Z,52.30
2022-12-23T07:06:02.835Z,52.31
2022-12-23T07:07:04.716Z,52.28
2022-12-23T07:08:06.540Z,52.27
2022-12-23T07:09:08.371Z,52.26
2022-12-23T07:10:10.590Z,52.25
2022-12-23T07:11:12.405Z,52.25
2022-12-23T07:12:14.237Z,52.25
2022-12-23T07:13:16.040Z,52.25
2022-12-23T07:14:17.923Z,52.25
2022-12-23T07:15:19.752Z,52.24
2022-12-23T07:16:21.711Z,52.25
2022-12-23T07:17:23.509Z,52.22
2022-12-23T07:18:25.290Z,52.17
2022-12-23T07:19:27.139Z,52.14
2022-12-23T07:20:29.037Z,52.19
2022-12-23T07:21:30.960Z,52.18
2022-12-23T07:22:32.771Z,52.19
2022-12-23T07:23:34.614Z,52.18
2022-12-23T07:24:36.400Z,52.18
2022-12-23T07:25:38.216Z,52.18
2022-12-23T07:26:40.260Z,52.16
2022-12-23T07:27:42.080Z,52.15
2022-12-23T07:28:44.015Z,52.13
2022-12-23T07:29:45.845Z,52.29
2022-12-23T07:30:47.692Z,52.29
2022-12-23T07:31:49.622Z,52.15
2022-12-23T07:32:51.498Z,52.19
2022-12-23T07:33:53.314Z,52.14
2022-12-23T07:34:55.150Z,52.15
2022-12-23T07:35:56.952Z,52.15
2022-12-23T07:36:58.802Z,52.18
2022-12-23T07:38:00.612Z,52.17
2022-12-23T07:39:02.446Z,52.21
2022-12-23T07:40:08.632Z,52.20
2022-12-23T07:41:07.937Z,52.23
2022-12-23T07:42:42.914Z,52.21
2022-12-23T07:43:13.392Z,52.22
2022-12-23T07:44:15.194Z,52.20
2022-12-23T07:45:17.028Z,52.23
2022-12-23T07:46:18.891Z,52.26
2022-12-23T07:47:20.687Z,52.24
2022-12-23T07:48:22.506Z,52.21
2022-12-23T07:49:24.316Z,52.25
2022-12-23T07:50:26.297Z,52.26
2022-12-23T07:51:28.189Z,52.28
2022-12-23T07:52:30.053Z,52.32
2022-12-23T07:53:31.851Z,52.33
2022-12-23T07:54:33.674Z,52.34
2022-12-23T07:55:35.564Z,52.38
2022-12-23T07:56:37.521Z,52.38
2022-12-23T07:57:39.368Z,52.39
2022-12-23T07:58:41.259Z,52.35
2022-12-23T07:59:43.041Z,52.35
2022-12-23T08:00:45.191Z,52.36
2022-12-23T08:01:47.130Z,52.38
2022-12-23T08:02:49.174Z,52.40
2022-12-23T08:03:51.303Z,52.42
2022-12-23T08:04:53.171Z,52.43
2022-12-23T08:05:54.948Z,52.44
2022-12-23T08:06:56.824Z,52.47
2022-12-23T08:07:58.651Z,52.45
2022-12-23T08:09:00.460Z,52.39
2022-12-23T08:10:02.313Z,52.39
2022-12-23T08:11:04.186Z,52.38
2022-12-23T08:12:06.043Z,52.41
2022-12-23T08:13:07.875Z,52.39
2022-12-23T08:14:09.681Z,52.39
2022-12-23T08:15:11.573Z,52.37
2022-12-23T08:16:13.708Z,52.41
2022-12-23T08:17:15.672Z,52.39
2022-12-23T08:18:17.555Z,52.39
2022-12-23T08:19:19.340Z,52.40
2022-12-23T08:20:21.249Z,52.41
2022-12-23T08:21:23.046Z,52.39
2022-12-23T08:22:24.941Z,52.39
2022-12-23T08:23:26.728Z,52.73
2022-12-23T08:24:28.546Z,52.73
2022-12-23T08:25:30.365Z,52.44
2022-12-23T08:26:32.323Z,52.42
2022-12-23T08:27:34.149Z,52.41
2022-12-23T08:28:35.946Z,52.38
2022-12-23T08:29:38.231Z,52.38
2022-12-23T08:30:40.327Z,52.36
2022-12-23T08:31:42.146Z,52.36
2022-12-23T08:32:43.959Z,52.37
2022-12-23T08:33:45.736Z,52.38
2022-12-23T08:34:47.522Z,52.42
2022-12-23T08:35:49.317Z,52.41
2022-12-23T08:36:51.172Z,52.42
2022-12-23T08:37:52.984Z,52.40
2022-12-23T08:38:54.761Z,52.40
2022-12-23T08:39:56.581Z,52.40
2022-12-23T08:40:58.392Z,52.41
2022-12-23T08:42:00.190Z,52.38
2022-12-23T08:43:01.974Z,52.36
2022-12-23T08:44:03.806Z,52.40
2022-12-23T08:45:05.658Z,52.40
2022-12-23T08:46:07.862Z,52.43
2022-12-23T08:47:10.003Z,52.45
2022-12-23T08:48:11.787Z,52.49
2022-12-23T08:49:13.566Z,52.51
2022-12-23T08:50:15.678Z,52.52
2022-12-23T08:51:17.515Z,52.52
2022-12-23T08:52:19.294Z,52.48
2022-12-23T08:53:21.079Z,52.47
2022-12-23T08:54:22.877Z,52.46
2022-12-23T08:55:24.752Z,52.41
2022-12-23T08:56:26.670Z,52.28
2022-12-23T08:57:28.446Z,52.22
2022-12-23T08:58:30.252Z,52.24
2022-12-23T08:59:32.085Z,52.31
2022-12-23T09:00:34.178Z,52.38
2022-12-23T09:01:36.224Z,52.39
2022-12-23T09:02:38.150Z,52.39
2022-12-23T09:03:40.161Z,52.41
2022-12-23T09:04:41.945Z,52.50
2022-12-23T09:05:43.735Z,52.54
2022-12-23T09:06:45.764Z,52.51
2022-12-23T09:07:47.590Z,52.42
2022-12-23T09:08:49.399Z,52.36
2022-12-23T09:09:51.212Z,52.33
2022-12-23T09:10:53.363Z,52.34
2022-12-23T09:11:55.116Z,52.30
2022-12-23T09:12:58.135Z,52.26
2022-12-23T09:14:00.091Z,52.24
2022-12-23T09:15:01.854Z,52.17
2022-12-23T09:16:03.733Z,52.13
2022-12-23T09:17:05.566Z,52.14
2022-12-23T09:18:10.196Z,52.14
2022-12-23T09:19:12.054Z,52.16
2022-12-23T09:20:14.064Z,52.19
2022-12-23T09:21:15.849Z,52.21
2022-12-23T09:22:17.552Z,52.18
2022-12-23T09:23:19.561Z,52.07
2022-12-23T09:24:21.379Z,52.03
2022-12-23T09:25:23.204Z,52.04
2022-12-23T09:26:25.115Z,52.02
2022-12-23T09:27:26.899Z,52.03
2022-12-23T09:28:28.687Z,52.02
2022-12-23T09:29:30.573Z,51.98
2022-12-23T09:30:32.360Z,51.96
2022-12-23T09:31:37.375Z,51.96
2022-12-23T09:32:37.764Z,51.93
2022-12-23T09:33:39.547Z,51.92
2022-12-23T09:34:41.367Z,51.91
2022-12-23T09:35:43.153Z,51.91
2022-12-23T09:36:47.978Z,51.94
2022-12-23T09:37:48.650Z,51.97
2022-12-23T09:38:50.419Z,51.95
2022-12-23T09:39:52.261Z,51.97
2022-12-23T09:40:54.159Z,51.97
2022-12-23T09:41:55.943Z,51.96
2022-12-23T09:42:57.751Z,51.87
2022-12-23T09:43:59.513Z,51.79
2022-12-23T09:45:01.381Z,51.76
2022-12-23T09:46:03.308Z,51.77
2022-12-23T09:47:05.085Z,51.81
2022-12-23T09:48:06.880Z,51.77
2022-12-23T09:49:08.662Z,51.75
2022-12-23T09:50:10.527Z,51.74
2022-12-23T09:51:12.327Z,51.71
2022-12-23T09:52:14.136Z,51.66
2022-12-23T09:53:15.946Z,51.72
2022-12-23T09:54:18.812Z,51.82
2022-12-23T09:55:20.677Z,51.86
2022-12-23T09:56:22.590Z,51.81
2022-12-23T09:57:24.749Z,51.81
2022-12-23T09:58:26.554Z,51.78
2022-12-23T09:59:28.459Z,51.79
2022-12-23T10:00:30.420Z,51.74
2022-12-23T10:01:32.315Z,51.77
2022-12-23T10:02:34.392Z,51.77
2022-12-23T10:03:36.502Z,51.71
2022-12-23T10:04:38.432Z,51.68
2022-12-23T10:05:40.255Z,51.63
2022-12-23T10:06:42.342Z,51.56
2022-12-23T10:07:44.151Z,51.50
2022-12-23T10:08:45.909Z,51.54
2022-12-23T10:09:47.711Z,51.56
2022-12-23T10:10:49.662Z,51.61
2022-12-23T10:11:51.467Z,51.60
2022-12-23T10:12:53.253Z,51.52
2022-12-23T10:13:55.042Z,51.43
2022-12-23T10:14:56.817Z,51.39
2022-12-23T10:15:58.689Z,51.34
2022-12-23T10:17:00.568Z,51.37
2022-12-23T10:18:02.352Z,51.39
2022-12-23T10:19:04.152Z,51.35
2022-12-23T10:20:06.239Z,51.34
2022-12-23T10:21:08.074Z,51.32
2022-12-23T10:22:09.853Z,51.36
2022-12-23T10:23:11.683Z,51.36
2022-12-23T10:24:13.479Z,51.23
2022-12-23T10:25:15.265Z,51.11
2022-12-23T10:26:17.129Z,51.06
2022-12-23T10:27:18.913Z,50.98
2022-12-23T10:28:20.696Z,50.99
2022-12-23T10:29:22.504Z,50.95
2022-12-23T10:30:53.929Z,50.97
2022-12-23T10:31:40.138Z,51.03
2022-12-23T10:32:32.031Z,50.94
2022-12-23T10:33:33.816Z,50.86
2022-12-23T10:35:39.197Z,50.88
2022-12-23T10:36:41.147Z,50.88
2022-12-23T10:37:43.215Z,50.85
2022-12-23T10:38:45.004Z,50.85
2022-12-23T10:39:46.812Z,50.87
2022-12-23T10:40:48.800Z,50.86
2022-12-23T10:41:50.688Z,50.87
2022-12-23T10:42:52.548Z,50.84
2022-12-23T10:43:54.395Z,50.81
2022-12-23T10:44:56.308Z,50.82
2022-12-23T10:45:58.111Z,50.82
2022-12-23T10:47:00.225Z,50.82
2022-12-23T10:48:02.062Z,50.85
2022-12-23T10:49:03.883Z,50.77
2022-12-23T10:50:06.042Z,50.78
2022-12-23T10:51:07.848Z,50.81
2022-12-23T10:52:09.708Z,50.77
2022-12-23T10:53:11.566Z,50.78
2022-12-23T10:54:13.363Z,50.81
2022-12-23T10:55:15.183Z,50.82
2022-12-23T10:56:17.374Z,50.84
2022-12-23T10:57:19.186Z,50.85
2022-12-23T10:58:20.999Z,50.89
2022-12-23T10:59:22.821Z,50.91
2022-12-23T11:00:24.755Z,50.87
2022-12-23T11:01:27.742Z,50.91
2022-12-23T11:02:29.997Z,50.92
2022-12-23T11:03:32.223Z,50.94
2022-12-23T11:04:34.275Z,50.90
2022-12-23T11:05:36.084Z,50.87
2022-12-23T11:06:38.609Z,50.85
2022-12-23T11:07:45.435Z,50.87
2022-12-23T11:08:44.147Z,50.89
2022-12-23T11:09:45.916Z,50.85
2022-12-23T11:10:48.025Z,50.86
2022-12-23T11:11:49.941Z,50.84
2022-12-23T11:12:51.811Z,50.85
2022-12-23T11:13:54.392Z,50.87
2022-12-23T11:14:56.195Z,50.87
2022-12-23T11:15:58.050Z,50.85
2022-12-23T11:17:00.247Z,50.81
2022-12-23T11:18:02.217Z,50.76
2022-12-23T11:19:04.000Z,50.77
2022-12-23T11:20:05.920Z,50.73
2022-12-23T11:21:07.721Z,50.75
2022-12-23T11:22:09.536Z,50.78
2022-12-23T11:23:11.405Z,50.79
2022-12-23T11:24:14.231Z,50.78
2022-12-23T11:25:16.038Z,50.79
2022-12-23T11:26:17.968Z,50.83
2022-12-23T11:27:20.686Z,50.89
2022-12-23T11:28:22.555Z,50.82
2022-12-23T11:29:24.398Z,50.81
2022-12-23T11:30:26.219Z,50.85
2022-12-23T11:31:28.056Z,50.92
2022-12-23T11:32:29.912Z,50.89
2022-12-23T11:33:31.792Z,50.95
2022-12-23T11:34:33.611Z,50.98
2022-12-23T11:35:35.523Z,50.97
2022-12-23T11:36:38.651Z,50.97
2022-12-23T11:37:40.460Z,50.95
2022-12-23T11:38:43.112Z,51.01
2022-12-23T11:39:44.929Z,50.98
2022-12-23T11:40:46.736Z,50.94
2022-12-23T11:41:48.591Z,50.85
2022-12-23T11:42:53.564Z,50.83
2022-12-23T11:43:54.033Z,50.82
2022-12-23T11:44:55.837Z,50.85
2022-12-23T11:45:57.700Z,50.91
2022-12-23T11:47:00.107Z,50.93
2022-12-23T11:48:01.900Z,50.88
2022-12-23T11:49:03.811Z,50.84
2022-12-23T11:50:05.832Z,50.84
2022-12-23T11:51:07.638Z,50.88
2022-12-23T11:52:09.457Z,50.89
2022-12-23T11:53:11.631Z,50.87
2022-12-23T11:54:13.475Z,50.88
2022-12-23T11:55:15.393Z,50.91
2022-12-23T11:56:17.342Z,50.89
2022-12-23T11:57:19.221Z,50.93
2022-12-23T11:58:21.147Z,50.93
2022-12-23T11:59:23.019Z,50.93
2022-12-23T12:00:25.017Z,50.96
2022-12-23T12:01:26.832Z,50.98
2022-12-23T12:02:28.666Z,50.96
2022-12-23T12:03:30.499Z,50.94
2022-12-23T12:04:32.384Z,50.98
2022-12-23T12:05:34.194Z,50.98
2022-12-23T12:06:36.010Z,50.93
2022-12-23T12:07:38.434Z,50.92
2022-12-23T12:08:40.253Z,50.93
2022-12-23T12:09:43.140Z,50.93
2022-12-23T12:10:45.063Z,50.89
2022-12-23T12:11:46.876Z,50.86
2022-12-23T12:12:52.907Z,50.86
2022-12-23T12:13:52.371Z,50.81
2022-12-23T12:14:54.475Z,50.76
2022-12-23T12:15:56.423Z,50.75
2022-12-23T12:16:58.293Z,50.71
2022-12-23T12:18:00.183Z,50.66
2022-12-23T12:19:01.998Z,50.64
2022-12-23T12:20:04.012Z,50.62
2022-12-23T12:21:05.853Z,50.58
2022-12-23T12:22:07.713Z,50.57
2022-12-23T12:23:09.543Z,50.56
2022-12-23T12:24:19.807Z,50.59
2022-12-23T12:25:15.185Z,50.59
2022-12-23T12:26:17.475Z,50.58
2022-12-23T12:27:19.366Z,50.58
2022-12-23T12:28:21.196Z,50.58
2022-12-23T12:29:22.988Z,50.55
2022-12-23T12:30:24.876Z,50.54
2022-12-23T12:31:26.795Z,50.52
2022-12-23T12:32:28.657Z,50.46
2022-12-23T12:33:30.475Z,50.49
2022-12-23T12:34:32.309Z,50.49
2022-12-23T12:35:34.195Z,50.49
2022-12-23T12:36:36.250Z,50.41
2022-12-23T12:37:38.677Z,50.38
2022-12-23T12:38:40.480Z,50.36
2022-12-23T12:39:42.415Z,50.37
2022-12-23T12:40:44.579Z,50.35
2022-12-23T12:41:46.404Z,50.30
2022-12-23T12:42:48.226Z,50.26
2022-12-23T12:43:50.051Z,50.22
2022-12-23T12:44:51.859Z,50.24
2022-12-23T12:45:53.756Z,50.18
2022-12-23T12:46:55.823Z,50.18
2022-12-23T12:48:04.414Z,50.14
2022-12-23T12:49:01.267Z,50.14
2022-12-23T12:50:03.084Z,50.13
2022-12-23T12:51:04.987Z,50.16
2022-12-23T12:52:06.810Z,50.17
2022-12-23T12:53:08.612Z,50.17
2022-12-23T12:54:10.394Z,50.17
2022-12-23T12:55:12.190Z,50.18
2022-12-23T12:56:14.022Z,50.15
2022-12-23T12:57:15.816Z,50.14
2022-12-23T12:58:17.600Z,50.10
2022-12-23T12:59:19.392Z,50.11
2022-12-23T13:00:21.291Z,50.16
2022-12-23T13:01:23.238Z,50.15
2022-12-23T13:02:25.048Z,50.12
2022-12-23T13:03:26.797Z,50.11
2022-12-23T13:04:28.589Z,50.14
2022-12-23T13:05:30.387Z,50.14
2022-12-23T13:06:32.326Z,50.12
2022-12-23T13:07:34.108Z,50.11
2022-12-23T13:08:35.891Z,50.11
2022-12-23T13:09:37.685Z,50.10
2022-12-23T13:10:39.790Z,50.12
2022-12-23T13:11:41.617Z,50.13
2022-12-23T13:12:43.398Z,50.08
2022-12-23T13:13:45.198Z,50.10
2022-12-23T13:14:46.998Z,50.10
2022-12-23T13:15:48.763Z,50.10
2022-12-23T13:16:51.332Z,50.09
2022-12-23T13:17:53.084Z,50.08
2022-12-23T13:18:54.877Z,50.11